Time;durP1;ratioP1;P1;durP2;ratioP2;P2;SDS_P1;SDS_P2;PMS_P1;PMS_P2;Temp;Humidity;BMP_temperature;BMP_pressure;BME280_temperature;BME280_humidity;BME280_pressure;Samples;Min_cycle;Max_cycle;Signal;HPM_P1;HPM_P2
2022/10/02 00:00:40;;;;;;;0.75;0.47;;;11.00;99.90;;;;;;4980586;28;20050;-93
2022/10/02 00:03:24;;;;;;;0.73;0.73;;;10.60;99.90;;;;;;4965017;28;20097;-93
2022/10/02 00:06:06;;;;;;;0.00;0.00;;;10.60;99.90;;;;;;4981501;28;20027;-92
2022/10/02 00:08:40;;;;;;;0.00;0.00;;;10.50;99.90;;;;;;4982771;28;20055;-92
2022/10/02 00:11:13;;;;;;;0.00;0.00;;;11.30;99.90;;;;;;4967399;28;20074;-92
2022/10/02 00:13:50;;;;;;;0.30;0.25;;;10.40;99.90;;;;;;4984003;28;20050;-92
2022/10/02 00:16:41;;;;;;;0.13;0.10;;;10.40;99.90;;;;;;4980840;28;20356;-93
2022/10/02 00:19:10;;;;;;;0.52;0.47;;;10.30;99.90;;;;;;4980211;28;20103;-92
2022/10/02 00:22:13;;;;;;;0.15;0.10;;;10.20;99.90;;;;;;4974928;28;20055;-91
2022/10/02 00:24:48;;;;;;;0.52;0.30;;;10.20;99.90;;;;;;4978674;28;20047;-93
2022/10/02 00:27:52;;;;;;;0.10;0.10;;;10.20;99.90;;;;;;4979725;28;20035;-93
2022/10/02 00:30:18;;;;;;;0.20;0.20;;;10.10;99.90;;;;;;4957699;28;20050;-93
2022/10/02 00:33:02;;;;;;;0.00;0.00;;;9.90;99.90;;;;;;4964201;28;20051;-93
2022/10/02 00:35:51;;;;;;;3.03;0.85;;;9.80;99.90;;;;;;4981122;28;20090;-92
2022/10/02 00:38:38;;;;;;;3.30;0.20;;;9.70;99.90;;;;;;4964430;28;20075;-93
2022/10/02 00:41:17;;;;;;;0.32;0.32;;;9.50;99.90;;;;;;4963802;28;20031;-93
2022/10/02 00:44:07;;;;;;;1.13;0.55;;;9.30;99.90;;;;;;4980022;28;20076;-93
2022/10/02 00:46:43;;;;;;;0.00;0.00;;;9.30;99.90;;;;;;4994369;28;20632;-92
2022/10/02 00:49:31;;;;;;;0.60;0.45;;;9.30;99.90;;;;;;4962893;28;20047;-92
2022/10/02 00:52:08;;;;;;;0.10;0.10;;;9.30;99.90;;;;;;4964683;28;20106;-93
2022/10/02 00:54:46;;;;;;;0.20;0.20;;;10.20;99.90;;;;;;4980278;28;20046;-92
2022/10/02 00:57:49;;;;;;;0.43;0.38;;;10.60;99.90;;;;;;4982430;28;20107;-94
2022/10/02 01:00:17;;;;;;;0.08;0.05;;;9.40;99.90;;;;;;4981640;28;20090;-94
2022/10/02 01:02:51;;;;;;;0.00;0.00;;;9.50;99.90;;;;;;4980339;28;20046;-92
2022/10/02 01:05:19;;;;;;;0.57;0.57;;;10.60;99.90;;;;;;4980493;28;20027;-93
2022/10/02 01:07:49;;;;;;;0.00;0.00;;;10.50;99.90;;;;;;4995744;28;20086;-93
2022/10/02 01:10:15;;;;;;;0.20;0.20;;;10.30;99.90;;;;;;4980238;28;20050;-92
2022/10/02 01:12:44;;;;;;;0.22;0.17;;;9.50;99.90;;;;;;4977742;28;20082;-92
2022/10/02 01:15:37;;;;;;;0.00;0.00;;;9.40;99.90;;;;;;4978372;28;20051;-93
2022/10/02 01:18:05;;;;;;;0.98;0.70;;;9.60;99.90;;;;;;4975971;28;20119;-93
2022/10/02 01:20:38;;;;;;;0.00;0.00;;;10.20;99.90;;;;;;4998477;28;20043;-93
2022/10/02 01:23:30;;;;;;;1.10;0.22;;;9.70;99.90;;;;;;4997989;28;20070;-93
2022/10/02 01:25:57;;;;;;;4.68;1.55;;;10.50;99.90;;;;;;4977047;28;20042;-95
2022/10/02 01:28:23;;;;;;;0.35;0.25;;;10.80;99.90;;;;;;4966058;28;20056;-94
2022/10/02 01:30:55;;;;;;;0.00;0.00;;;11.00;99.90;;;;;;4980721;28;20050;-93
2022/10/02 01:33:21;;;;;;;0.25;0.22;;;10.00;99.90;;;;;;4965126;28;20069;-95
2022/10/02 01:35:48;;;;;;;1.70;0.63;;;9.30;99.90;;;;;;5111271;23;20138;-94
2022/10/02 01:38:18;;;;;;;0.52;0.52;;;10.00;99.90;;;;;;5017153;28;20026;-94
2022/10/02 01:40:44;;;;;;;0.38;0.38;;;10.10;99.90;;;;;;5017094;28;20036;-93
2022/10/02 01:43:17;;;;;;;2.50;2.30;;;11.40;99.90;;;;;;5033869;28;20022;-93
2022/10/02 01:46:11;;;;;;;1.35;0.38;;;10.10;99.90;;;;;;5032989;28;20022;-93
2022/10/02 01:48:52;;;;;;;0.00;0.00;;;10.10;99.90;;;;;;5034008;28;20727;-93
2022/10/02 01:51:33;;;;;;;0.00;0.00;;;11.10;99.90;;;;;;5017390;28;20041;-93
2022/10/02 01:54:37;;;;;;;0.20;0.20;;;10.10;99.90;;;;;;5016885;28;20037;-92
2022/10/02 01:57:21;;;;;;;0.63;0.35;;;10.00;99.90;;;;;;5031456;28;20046;-93
2022/10/02 02:02:18;;;;;;;2.22;0.88;;;10.00;99.90;;;;;;4947936;28;20054;-83
2022/10/02 02:04:58;;;;;;;0.00;0.00;;;10.90;99.90;;;;;;4952816;29;20047;-84
2022/10/02 02:07:29;;;;;;;0.00;0.00;;;10.10;99.90;;;;;;4935074;29;20476;-84
2022/10/02 02:10:07;;;;;;;0.32;0.28;;;10.20;99.90;;;;;;4928378;29;20152;-84
2022/10/02 02:12:48;;;;;;;0.10;0.10;;;10.10;99.90;;;;;;4916005;29;20066;-83
2022/10/02 02:15:48;;;;;;;0.10;0.10;;;10.10;99.90;;;;;;4915653;29;20160;-84
2022/10/02 02:18:27;;;;;;;0.10;0.10;;;10.20;99.90;;;;;;4895950;29;20131;-84
2022/10/02 02:20:57;;;;;;;0.00;0.00;;;10.10;99.90;;;;;;4916113;29;20143;-83
2022/10/02 02:23:28;;;;;;;0.13;0.10;;;10.20;99.90;;;;;;4933299;29;20091;-83
2022/10/02 02:25:59;;;;;;;0.05;0.05;;;10.20;99.90;;;;;;4899287;29;20394;-84
2022/10/02 02:28:30;;;;;;;0.00;0.00;;;10.90;99.90;;;;;;4932660;29;20041;-83
2022/10/02 02:30:58;;;;;;;8.35;1.85;;;11.30;99.90;;;;;;4932454;29;20055;-85
2022/10/02 02:33:35;;;;;;;1.85;0.70;;;10.20;99.90;;;;;;4930706;29;20495;-84
2022/10/02 02:36:06;;;;;;;0.00;0.00;;;11.10;99.90;;;;;;4899703;29;20067;-84
2022/10/02 02:38:55;;;;;;;0.43;0.30;;;10.20;99.90;;;;;;4914405;29;20138;-83
2022/10/02 02:41:27;;;;;;;0.80;0.35;;;10.20;99.90;;;;;;4914114;29;20126;-83
2022/10/02 02:44:10;;;;;;;1.48;0.75;;;9.20;99.90;;;;;;4900026;29;20103;-84
2022/10/02 02:47:02;;;;;;;1.08;0.45;;;10.20;99.90;;;;;;4914895;29;20122;-85
2022/10/02 02:49:34;;;;;;;0.45;0.43;;;10.20;99.90;;;;;;4932257;29;20047;-84
2022/10/02 02:52:02;;;;;;;0.00;0.00;;;11.00;99.90;;;;;;4914681;29;20074;-83
2022/10/02 02:54:48;;;;;;;2.30;1.42;;;11.40;99.90;;;;;;4932035;29;20560;-85
2022/10/02 02:57:17;;;;;;;0.00;0.00;;;10.30;99.90;;;;;;4931893;29;20078;-85
2022/10/02 02:59:48;;;;;;;3.72;0.85;;;10.40;99.90;;;;;;4931022;29;20105;-84
2022/10/02 03:02:13;;;;;;;0.08;0.08;;;10.30;99.90;;;;;;4950950;29;20082;-83
2022/10/02 03:04:39;;;;;;;0.10;0.10;;;10.40;99.90;;;;;;4950827;29;20051;-83
2022/10/02 03:07:10;;;;;;;19.17;0.85;;;10.70;99.90;;;;;;4949350;29;20355;-82
2022/10/02 03:09:36;;;;;;;0.55;0.55;;;10.30;99.90;;;;;;4950022;29;20050;-84
2022/10/02 03:12:18;;;;;;;0.00;0.00;;;10.40;99.90;;;;;;4933166;29;20135;-83
2022/10/02 03:15:03;;;;;;;0.30;0.30;;;10.30;99.90;;;;;;4948457;29;20138;-84
2022/10/02 03:17:44;;;;;;;0.20;0.10;;;10.30;99.90;;;;;;4950188;29;20062;-84
2022/10/02 03:20:47;;;;;;;0.10;0.10;;;10.40;99.90;;;;;;4947895;29;20094;-84
2022/10/02 03:23:33;;;;;;;0.10;0.10;;;10.50;99.90;;;;;;4916896;29;20070;-83
2022/10/02 03:26:07;;;;;;;0.00;0.00;;;11.20;99.90;;;;;;4933151;29;20047;-83
2022/10/02 03:28:52;;;;;;;0.20;0.15;;;10.50;99.90;;;;;;4950254;29;20048;-83
2022/10/02 03:31:19;;;;;;;0.10;0.10;;;10.60;99.90;;;;;;4949767;29;20051;-83
2022/10/02 03:33:46;;;;;;;0.10;0.10;;;10.60;99.90;;;;;;4949682;29;20134;-82
2022/10/02 03:36:15;;;;;;;0.43;0.28;;;10.60;99.90;;;;;;4932070;29;20055;-83
2022/10/02 03:38:42;;;;;;;1.45;0.70;;;10.70;99.90;;;;;;4949497;29;20126;-84
2022/10/02 03:41:07;;;;;;;1.02;0.70;;;11.70;99.90;;;;;;4949952;29;20051;-85
2022/10/02 03:43:33;;;;;;;0.82;0.40;;;11.80;99.90;;;;;;4949166;29;20055;-84
2022/10/02 03:45:59;;;;;;;0.17;0.15;;;10.70;99.90;;;;;;4931868;29;20066;-84
2022/10/02 03:48:25;;;;;;;0.32;0.32;;;10.80;99.90;;;;;;4931528;29;20379;-85
2022/10/02 03:50:50;;;;;;;1.27;0.65;;;10.70;99.90;;;;;;4931948;29;20051;-84
2022/10/02 03:53:21;;;;;;;0.20;0.20;;;10.70;99.90;;;;;;4949724;29;20489;-84
2022/10/02 03:56:00;;;;;;;2.20;1.10;;;10.70;99.90;;;;;;4949322;29;20047;-85
2022/10/02 03:58:26;;;;;;;0.00;0.00;;;10.80;99.90;;;;;;4916595;29;20047;-84
2022/10/02 04:01:06;;;;;;;0.00;0.00;;;10.80;99.90;;;;;;4952511;28;20059;-85
2022/10/02 04:03:37;;;;;;;0.00;0.00;;;10.80;99.90;;;;;;4948295;28;20055;-84
2022/10/02 04:06:32;;;;;;;0.35;0.35;;;10.70;99.90;;;;;;4949526;28;20114;-83
2022/10/02 04:09:11;;;;;;;0.25;0.25;;;11.20;99.90;;;;;;4952575;28;20055;-84
2022/10/02 04:11:47;;;;;;;0.10;0.10;;;10.70;99.90;;;;;;4952969;28;20055;-85
2022/10/02 04:14:19;;;;;;;0.17;0.13;;;11.40;99.90;;;;;;4953487;28;20481;-84
2022/10/02 04:17:25;;;;;;;3.40;0.52;;;10.70;99.90;;;;;;4952169;29;20057;-83
2022/10/02 04:20:00;;;;;;;0.13;0.13;;;10.70;99.90;;;;;;4917560;28;20610;-83
2022/10/02 04:22:49;;;;;;;0.00;0.00;;;11.40;99.90;;;;;;4954284;28;20051;-84
2022/10/02 04:25:19;;;;;;;0.15;0.10;;;10.40;99.90;;;;;;4953721;28;20047;-83
2022/10/02 04:28:01;;;;;;;0.55;0.10;;;10.60;99.90;;;;;;4950947;29;20421;-84
2022/10/02 04:30:28;;;;;;;0.00;0.00;;;10.50;99.90;;;;;;4951165;29;20080;-83
2022/10/02 04:33:04;;;;;;;0.00;0.00;;;10.50;99.90;;;;;;4951819;29;20405;-83
2022/10/02 04:35:43;;;;;;;0.40;0.25;;;11.40;99.90;;;;;;4953567;29;20066;-83
2022/10/02 04:38:30;;;;;;;0.00;0.00;;;11.60;99.90;;;;;;4955677;28;20051;-83
2022/10/02 04:41:01;;;;;;;0.00;0.00;;;9.50;99.90;;;;;;4953984;28;20051;-83
2022/10/02 04:44:09;;;;;;;0.90;0.43;;;10.50;99.90;;;;;;4952291;29;20086;-82
2022/10/02 04:46:38;;;;;;;0.73;0.60;;;10.40;99.90;;;;;;4954484;29;20144;-84
2022/10/02 04:49:23;;;;;;;7.20;0.30;;;10.50;99.90;;;;;;4960637;28;20121;-85
2022/10/02 04:52:22;;;;;;;7.10;1.95;;;10.40;99.90;;;;;;4954595;29;20106;-83
2022/10/02 04:55:13;;;;;;;0.35;0.30;;;10.40;99.90;;;;;;4954966;29;20055;-84
2022/10/02 04:58:29;;;;;;;1.00;0.55;;;10.30;99.90;;;;;;4953448;29;20059;-83
2022/10/02 05:01:11;;;;;;;0.45;0.45;;;10.30;99.90;;;;;;4910727;28;20134;-83
2022/10/02 05:04:01;;;;;;;0.00;0.00;;;10.20;99.90;;;;;;4953455;29;20065;-84
2022/10/02 05:06:35;;;;;;;0.00;0.00;;;10.20;99.90;;;;;;4954642;29;20058;-84
2022/10/02 05:09:26;;;;;;;1.30;1.08;;;10.10;99.90;;;;;;4953602;29;20055;-83
2022/10/02 05:12:09;;;;;;;0.00;0.00;;;10.00;99.90;;;;;;4954423;28;20560;-84
2022/10/02 05:14:40;;;;;;;0.00;0.00;;;10.50;99.90;;;;;;4937022;29;20090;-83
2022/10/02 05:17:29;;;;;;;1.15;0.68;;;9.90;99.90;;;;;;4951604;29;20062;-83
2022/10/02 05:20:14;;;;;;;6.05;2.30;;;10.00;99.90;;;;;;4952936;28;20051;-83
2022/10/02 05:22:49;;;;;;;1.40;1.15;;;10.10;99.90;;;;;;4959912;28;20600;-84
2022/10/02 05:25:54;;;;;;;0.00;0.00;;;10.00;99.90;;;;;;4958913;29;20059;-84
2022/10/02 05:28:41;;;;;;;0.00;0.00;;;9.90;99.90;;;;;;4952050;29;20059;-84
2022/10/02 05:31:32;;;;;;;0.00;0.00;;;9.80;99.90;;;;;;4954055;29;20054;-83
2022/10/02 05:34:06;;;;;;;0.00;0.00;;;9.90;99.90;;;;;;4952558;29;20055;-84
2022/10/02 05:36:51;;;;;;;0.80;0.80;;;9.80;99.90;;;;;;4937502;29;20186;-84
2022/10/02 05:39:21;;;;;;;2.97;0.80;;;9.80;99.90;;;;;;4936347;29;20111;-84
2022/10/02 05:42:10;;;;;;;0.20;0.20;;;9.80;99.90;;;;;;4950697;29;20070;-84
2022/10/02 05:44:41;;;;;;;0.00;0.00;;;9.70;99.90;;;;;;4951168;29;20066;-84
2022/10/02 05:47:47;;;;;;;0.32;0.32;;;10.30;99.90;;;;;;4952227;28;20417;-85
2022/10/02 05:50:20;;;;;;;0.00;0.00;;;9.60;99.90;;;;;;4896600;29;20095;-84
2022/10/02 05:53:29;;;;;;;0.63;0.35;;;9.70;99.90;;;;;;4896551;29;20138;-84
2022/10/02 05:56:02;;;;;;;0.00;0.00;;;9.70;99.90;;;;;;4895149;29;20516;-84
2022/10/02 05:59:11;;;;;;;0.00;0.00;;;10.60;99.90;;;;;;4947303;29;20749;-85
2022/10/02 06:01:41;;;;;;;0.00;0.00;;;9.80;99.90;;;;;;4924233;29;20141;-84
2022/10/02 06:04:22;;;;;;;0.10;0.10;;;9.80;99.90;;;;;;4951881;28;20058;-84
2022/10/02 06:06:52;;;;;;;0.00;0.00;;;9.30;99.90;;;;;;4950950;29;20146;-84
2022/10/02 06:09:28;;;;;;;1.10;0.63;;;10.30;99.90;;;;;;4966723;28;20054;-84
2022/10/02 06:12:19;;;;;;;0.10;0.10;;;9.90;99.90;;;;;;4951624;29;20065;-84
2022/10/02 06:15:21;;;;;;;0.00;0.00;;;9.90;99.90;;;;;;4951608;29;20059;-84
2022/10/02 06:18:12;;;;;;;0.10;0.10;;;9.90;99.90;;;;;;4937867;29;20062;-85
2022/10/02 06:20:58;;;;;;;4.95;0.20;;;10.00;99.90;;;;;;4950685;29;20146;-84
2022/10/02 06:23:34;;;;;;;1.60;0.30;;;10.00;99.90;;;;;;4949634;29;20059;-84
2022/10/02 06:26:13;;;;;;;0.00;0.00;;;11.10;99.90;;;;;;4948706;29;20058;-84
2022/10/02 06:28:41;;;;;;;0.00;0.00;;;10.00;99.90;;;;;;4949630;29;20142;-83
2022/10/02 06:31:14;;;;;;;0.00;0.00;;;10.00;99.90;;;;;;4950293;28;20083;-84
2022/10/02 06:33:40;;;;;;;1.20;0.30;;;10.60;99.90;;;;;;4948049;29;20063;-84
2022/10/02 06:36:16;;;;;;;0.00;0.00;;;11.30;99.90;;;;;;4950638;28;20047;-84
2022/10/02 06:39:08;;;;;;;0.08;0.08;;;10.20;99.90;;;;;;4948298;29;20055;-84
2022/10/02 06:42:07;;;;;;;0.20;0.10;;;10.90;99.90;;;;;;4949136;29;20382;-85
2022/10/02 06:44:51;;;;;;;0.50;0.50;;;10.30;99.90;;;;;;4949542;29;20122;-84
2022/10/02 06:47:48;;;;;;;0.15;0.10;;;10.70;99.90;;;;;;4951033;29;20131;-84
2022/10/02 06:50:37;;;;;;;0.90;0.75;;;10.40;99.90;;;;;;4950326;29;20097;-83
2022/10/02 06:53:34;;;;;;;1.25;1.15;;;10.50;99.90;;;;;;4950112;28;20167;-84
2022/10/02 06:56:18;;;;;;;0.15;0.15;;;10.60;99.90;;;;;;4926580;28;20549;-84
2022/10/02 06:59:29;;;;;;;1.63;1.20;;;10.70;99.90;;;;;;4949256;28;20085;-85
2022/10/02 07:02:47;;;;;;;0.00;0.00;;;10.90;99.90;;;;;;4943573;28;20047;-84
2022/10/02 07:05:30;;;;;;;;;;;11.10;99.90;;;;;;4916098;29;20772;-86
2022/10/02 07:08:14;;;;;;;0.00;0.00;;;11.40;99.90;;;;;;4917348;29;20481;-86
2022/10/02 07:11:09;;;;;;;1.45;0.85;;;10.90;99.90;;;;;;4967491;28;20059;-86
2022/10/02 07:14:07;;;;;;;5.53;0.80;;;12.10;99.90;;;;;;4961768;29;20059;-89
2022/10/02 07:17:21;;;;;;;0.10;0.10;;;13.00;99.90;;;;;;4951172;29;20604;-90
2022/10/02 07:20:17;;;;;;;0.10;0.10;;;11.70;99.90;;;;;;4968067;28;20041;-89
2022/10/02 07:23:25;;;;;;;7.22;1.35;;;12.00;99.90;;;;;;4953447;28;20047;-90
2022/10/02 07:26:30;;;;;;;0.13;0.08;;;12.00;99.90;;;;;;4969130;28;20090;-91
2022/10/02 07:30:18;;;;;;;0.40;0.30;;;12.30;99.90;;;;;;4968872;28;20079;-90
2022/10/02 07:33:09;;;;;;;;;;;;;;;;;;;;;
2022/10/02 07:36:41;;;;;;;;;;;;;;;;;;;;;
2022/10/02 07:40:46;;;;;;;0.10;0.10;;;12.50;99.90;;;;;;4970356;28;20063;-91
2022/10/02 08:06:08;;;;;;;0.05;0.05;;;13.10;99.90;;;;;;5011812;28;20551;-88
2022/10/02 08:09:01;;;;;;;0.00;0.00;;;13.30;99.90;;;;;;4988818;28;20090;-88
2022/10/02 08:11:51;;;;;;;0.45;0.30;;;13.80;99.90;;;;;;4975614;28;20037;-88
2022/10/02 08:14:38;;;;;;;0.00;0.00;;;13.50;99.90;;;;;;4995270;28;20081;-89
2022/10/02 08:17:28;;;;;;;;;;;13.20;99.90;;;;;;4976793;28;20094;-88
2022/10/02 08:20:02;;;;;;;0.13;0.13;;;12.90;99.90;;;;;;4996843;28;19910;-89
2022/10/02 08:22:37;;;;;;;0.00;0.00;;;12.80;99.90;;;;;;4956888;29;20050;-89
2022/10/02 08:25:51;;;;;;;5.57;0.20;;;12.70;99.90;;;;;;4981225;28;20058;-91
2022/10/02 08:28:44;;;;;;;0.15;0.10;;;11.90;99.90;;;;;;4956746;28;20069;-88
2022/10/02 08:31:34;;;;;;;0.10;0.10;;;12.40;99.90;;;;;;4972545;28;20054;-88
2022/10/02 08:34:37;;;;;;;0.00;0.00;;;11.50;99.90;;;;;;4976906;28;20054;-90
2022/10/02 08:37:31;;;;;;;0.52;0.28;;;12.30;99.90;;;;;;4991741;28;20050;-89
2022/10/02 08:40:11;;;;;;;0.30;0.22;;;12.30;99.90;;;;;;4967177;28;20030;-89
2022/10/02 08:43:03;;;;;;;0.00;0.00;;;12.40;99.90;;;;;;5087239;23;20122;-86
2022/10/02 08:45:34;;;;;;;0.00;0.00;;;12.30;99.90;;;;;;4972775;28;20099;-87
2022/10/02 08:48:41;;;;;;;0.52;0.20;;;12.20;99.90;;;;;;4994189;28;20026;-88
2022/10/02 08:51:45;;;;;;;0.00;0.00;;;12.30;99.90;;;;;;4974416;28;20051;-89
2022/10/02 08:54:48;;;;;;;0.00;0.00;;;11.70;99.90;;;;;;4971665;28;20027;-88
2022/10/02 08:57:55;;;;;;;0.22;0.20;;;12.60;99.90;;;;;;4963374;28;20047;-87
2022/10/02 09:00:23;;;;;;;;;;;12.80;99.90;;;;;;4982628;28;20051;-85
2022/10/02 09:03:32;;;;;;;0.00;0.00;;;13.10;99.90;;;;;;4960685;28;19933;-86
2022/10/02 09:06:30;;;;;;;0.03;0.00;;;13.30;99.90;;;;;;4951706;29;20078;-85
2022/10/02 09:09:40;;;;;;;0.63;0.63;;;14.50;99.90;;;;;;4933696;29;20059;-85
2022/10/02 09:12:25;;;;;;;0.00;0.00;;;13.50;99.90;;;;;;4948619;29;20180;-85
2022/10/02 09:14:58;;;;;;;0.03;0.03;;;13.70;99.90;;;;;;4953274;29;20051;-84
2022/10/02 09:17:34;;;;;;;0.90;0.73;;;13.70;99.90;;;;;;4953469;29;20133;-86
2022/10/02 09:20:36;;;;;;;0.10;0.10;;;13.60;99.90;;;;;;4953197;29;20102;-86
2022/10/02 09:23:43;;;;;;;0.05;0.03;;;13.60;99.90;;;;;;4963564;28;20051;-84
2022/10/02 09:26:09;;;;;;;1.13;0.47;;;13.50;99.90;;;;;;4974773;28;20078;-84
2022/10/02 09:28:50;;;;;;;0.00;0.00;;;13.50;99.90;;;;;;4942031;29;20102;-83
2022/10/02 09:32:11;;;;;;;0.00;0.00;;;13.70;99.90;;;;;;4950225;28;20054;-85
2022/10/02 09:35:01;;;;;;;0.00;0.00;;;14.00;99.90;;;;;;4934005;28;20062;-84
2022/10/02 09:37:46;;;;;;;0.10;0.10;;;14.00;99.90;;;;;;4962281;28;20058;-85
2022/10/02 09:40:37;;;;;;;1.63;0.20;;;13.90;99.90;;;;;;4936907;29;20047;-85
2022/10/02 09:43:26;;;;;;;0.10;0.10;;;14.20;99.90;;;;;;4976646;28;20085;-85
2022/10/02 09:46:12;;;;;;;0.73;0.43;;;14.40;99.90;;;;;;4992394;28;20077;-84
2022/10/02 09:48:53;;;;;;;0.30;0.28;;;14.10;99.90;;;;;;4971122;28;20592;-84
2022/10/02 09:51:40;;;;;;;0.13;0.13;;;14.00;99.90;;;;;;4974268;28;20054;-83
2022/10/02 09:54:32;;;;;;;0.08;0.08;;;14.00;99.90;;;;;;4969514;28;20082;-84
2022/10/02 09:57:30;;;;;;;1.13;0.63;;;14.00;99.90;;;;;;4960437;28;20054;-85
2022/10/02 10:00:16;;;;;;;0.32;0.32;;;13.30;99.90;;;;;;4965247;28;20058;-83
2022/10/02 10:03:01;;;;;;;0.35;0.30;;;14.00;99.90;;;;;;4979861;28;20422;-84
2022/10/02 10:06:05;;;;;;;4.13;0.55;;;14.30;99.90;;;;;;4970511;28;20059;-84
2022/10/02 10:09:28;;;;;;;0.00;0.00;;;13.80;99.90;;;;;;4960828;28;20070;-83
2022/10/02 10:12:17;;;;;;;0.10;0.10;;;13.90;99.90;;;;;;4892204;29;20189;-83
2022/10/02 10:15:18;;;;;;;0.03;0.03;;;13.90;99.90;;;;;;4857682;29;20060;-84
2022/10/02 10:18:19;;;;;;;0.00;0.00;;;14.10;99.90;;;;;;4981414;28;20105;-83
2022/10/02 10:21:13;;;;;;;0.28;0.28;;;14.40;99.90;;;;;;4917500;28;20138;-83
2022/10/02 10:23:58;;;;;;;0.08;0.05;;;14.60;99.90;;;;;;4958853;28;20062;-87
2022/10/02 10:26:52;;;;;;;0.35;0.35;;;14.70;99.90;;;;;;4974123;28;20055;-88
2022/10/02 10:29:24;;;;;;;0.43;0.32;;;14.80;99.90;;;;;;4976190;28;20049;-87
2022/10/02 10:32:09;;;;;;;2.30;0.88;;;15.00;99.90;;;;;;4980983;28;20118;-88
2022/10/02 10:34:53;;;;;;;2.63;1.75;;;15.00;99.90;;;;;;4939483;29;20063;-87
2022/10/02 10:40:24;;;;;;;0.00;0.00;;;15.00;99.90;;;;;;4990569;28;20177;-87
2022/10/02 10:43:17;;;;;;;0.20;0.20;;;15.00;99.90;;;;;;4955541;28;20062;-86
2022/10/02 10:46:11;;;;;;;0.38;0.20;;;15.00;99.90;;;;;;4964030;28;20066;-89
2022/10/02 10:49:05;;;;;;;3.35;0.95;;;15.30;99.90;;;;;;4960430;28;20173;-87
2022/10/02 10:51:36;;;;;;;0.22;0.10;;;15.70;99.90;;;;;;4995577;28;20073;-88
2022/10/02 10:54:10;;;;;;;0.32;0.32;;;16.00;99.90;;;;;;4982776;28;20055;-87
2022/10/02 10:56:46;;;;;;;0.88;0.15;;;16.40;99.90;;;;;;4969783;28;20094;-88
2022/10/02 10:59:41;;;;;;;6.50;1.73;;;16.70;99.90;;;;;;4983811;28;20058;-88
2022/10/02 11:02:35;;;;;;;0.50;0.50;;;16.20;1.00;;;;;;4953909;29;20517;-88
2022/10/02 11:05:20;;;;;;;0.00;0.00;;;16.50;1.00;;;;;;4968324;28;20034;-87
2022/10/02 11:08:08;;;;;;;0.20;0.20;;;16.40;1.00;;;;;;4984270;28;20877;-88
2022/10/02 11:10:56;;;;;;;1.73;1.10;;;16.20;97.10;;;;;;4964289;28;20166;-88
2022/10/02 11:13:43;;;;;;;0.00;0.00;;;16.30;38.10;;;;;;4963097;28;20055;-88
2022/10/02 11:16:18;;;;;;;2.97;0.47;;;16.50;1.00;;;;;;4987044;28;20049;-87
2022/10/02 11:19:28;;;;;;;0.00;0.00;;;16.90;31.50;;;;;;4968560;28;20035;-88
2022/10/02 11:22:06;;;;;;;0.75;0.45;;;17.60;99.90;;;;;;4923417;29;20067;-89
2022/10/02 11:24:54;;;;;;;0.00;0.00;;;17.70;99.90;;;;;;4912705;29;20067;-88
2022/10/02 11:27:56;;;;;;;0.85;0.63;;;17.60;99.90;;;;;;4957695;28;20073;-88
2022/10/02 11:30:42;;;;;;;0.00;0.00;;;17.30;1.00;;;;;;4976052;28;20066;-87
2022/10/02 11:33:09;;;;;;;0.28;0.22;;;17.60;99.90;;;;;;4979201;28;20565;-86
2022/10/02 11:36:22;;;;;;;0.25;0.25;;;17.80;1.00;;;;;;4968946;28;20039;-87
2022/10/02 11:39:14;;;;;;;0.52;0.50;;;17.80;99.90;;;;;;4883688;29;20069;-87
2022/10/02 11:41:42;;;;;;;1.25;0.63;;;18.20;1.00;;;;;;4869611;29;20112;-87
2022/10/02 11:44:23;;;;;;;0.47;0.47;;;18.00;1.00;;;;;;4936740;29;20138;-87
2022/10/02 11:47:20;;;;;;;0.85;0.47;;;18.30;1.00;;;;;;4972450;28;20098;-86
2022/10/02 11:50:00;;;;;;;1.25;0.88;;;18.00;99.90;;;;;;4965615;28;20057;-87
2022/10/02 11:53:04;;;;;;;0.20;0.17;;;18.10;99.90;;;;;;4957888;28;20645;-86
2022/10/02 11:55:41;;;;;;;8.60;1.55;;;18.30;1.00;;;;;;4969591;28;20046;-86
2022/10/02 11:58:39;;;;;;;0.20;0.20;;;18.40;78.80;;;;;;4978484;28;20054;-87
2022/10/02 12:01:25;;;;;;;2.58;0.70;;;18.60;59.40;;;;;;4950035;29;20060;-86
2022/10/02 12:04:17;;;;;;;0.32;0.10;;;18.80;99.90;;;;;;4953788;29;20055;-86
2022/10/02 12:07:16;;;;;;;2.00;0.45;;;19.10;99.90;;;;;;4936910;29;20068;-85
2022/10/02 12:10:19;;;;;;;0.25;0.20;;;19.40;1.00;;;;;;4920966;29;20047;-87
2022/10/02 12:13:19;;;;;;;2.72;1.10;;;19.40;99.90;;;;;;4964841;28;20081;-86
2022/10/02 12:15:55;;;;;;;0.85;0.40;;;19.60;1.00;;;;;;4990263;28;20042;-86
2022/10/02 12:18:48;;;;;;;1.92;0.95;;;19.70;99.90;;;;;;4955424;28;20386;-86
2022/10/02 12:28:04;;;;;;;0.08;0.08;;;19.00;1.00;;;;;;4956238;28;20094;-87
2022/10/02 12:30:47;;;;;;;0.57;0.47;;;18.70;99.90;;;;;;4957193;28;20054;-86
2022/10/02 12:33:39;;;;;;;1.08;0.68;;;18.70;1.00;;;;;;4979574;28;20034;-87
2022/10/02 12:36:35;;;;;;;0.38;0.20;;;18.70;99.90;;;;;;4975039;28;20109;-88
2022/10/02 12:39:27;;;;;;;0.22;0.20;;;19.30;1.00;;;;;;4970299;28;20078;-87
2022/10/02 12:42:12;;;;;;;0.20;0.20;;;20.00;1.00;;;;;;4955374;28;20580;-87
2022/10/02 12:45:13;;;;;;;0.28;0.20;;;20.70;99.90;;;;;;4969407;28;20070;-87
2022/10/02 12:48:19;;;;;;;6.97;1.38;;;20.60;99.90;;;;;;4968495;28;20146;-84
2022/10/02 12:51:12;;;;;;;0.50;0.50;;;20.30;99.90;;;;;;4972128;28;20047;-85
2022/10/02 12:53:44;;;;;;;0.30;0.20;;;20.30;99.90;;;;;;4964377;28;20046;-85
2022/10/02 12:56:15;;;;;;;0.28;0.20;;;20.20;99.90;;;;;;4943676;29;20142;-85
2022/10/02 12:59:05;;;;;;;0.03;0.03;;;21.20;99.90;;;;;;4972991;28;20054;-85
2022/10/02 13:01:43;;;;;;;3.65;0.75;;;20.70;99.90;;;;;;4972909;28;20057;-85
2022/10/02 13:04:27;;;;;;;3.85;1.08;;;21.10;99.90;;;;;;4957871;29;20035;-85
2022/10/02 13:07:13;;;;;;;0.38;0.30;;;21.00;80.10;;;;;;4961681;28;20069;-85
2022/10/02 13:09:43;;;;;;;;;;;20.90;54.80;;;;;;4997134;28;20050;-86
2022/10/02 13:12:36;;;;;;;0.28;0.28;;;20.50;22.00;;;;;;4996610;28;19952;-87
2022/10/02 13:15:19;;;;;;;1.23;0.82;;;20.80;99.90;;;;;;4976008;28;20047;-86
2022/10/02 13:18:17;;;;;;;0.00;0.00;;;20.90;7.90;;;;;;4999489;28;20128;-84
2022/10/02 13:21:01;;;;;;;0.85;0.52;;;21.10;1.00;;;;;;4998846;28;20042;-85
2022/10/02 13:23:36;;;;;;;2.90;0.90;;;20.60;1.00;;;;;;4980093;28;20047;-85
2022/10/02 13:26:21;;;;;;;1.83;0.98;;;19.30;1.00;;;;;;4995801;28;20120;-85
2022/10/02 13:29:04;;;;;;;11.40;1.08;;;19.90;1.00;;;;;;4984012;28;20051;-86
2022/10/02 13:32:07;;;;;;;0.20;0.13;;;18.50;1.00;;;;;;4965911;28;20050;-84
2022/10/02 13:35:00;;;;;;;0.40;0.40;;;17.40;1.00;;;;;;4982554;28;20055;-84
2022/10/02 13:37:56;;;;;;;0.38;0.13;;;18.60;53.90;;;;;;4982688;28;20057;-86
2022/10/02 13:40:42;;;;;;;0.65;0.55;;;19.30;99.90;;;;;;4999510;28;20109;-85
2022/10/02 13:43:17;;;;;;;0.50;0.25;;;19.70;97.00;;;;;;4980838;28;20054;-84
2022/10/02 13:46:20;;;;;;;0.45;0.45;;;20.50;99.90;;;;;;5000747;28;20046;-84
2022/10/02 13:49:01;;;;;;;0.03;0.03;;;20.80;1.00;;;;;;5005324;28;20058;-85
2022/10/02 13:51:47;;;;;;;0.20;0.20;;;21.70;1.00;;;;;;4985943;28;20154;-85
2022/10/02 13:54:15;;;;;;;0.80;0.65;;;21.20;1.00;;;;;;5001612;28;20050;-85
2022/10/02 13:56:59;;;;;;;0.15;0.15;;;21.70;1.00;;;;;;4986438;28;20046;-86
2022/10/02 14:00:08;;;;;;;0.47;0.45;;;22.00;99.90;;;;;;4985665;28;20066;-85
2022/10/02 14:03:03;;;;;;;5.47;0.85;;;22.10;99.90;;;;;;4963696;28;20078;-85
2022/10/02 14:05:49;;;;;;;0.95;0.65;;;22.50;99.90;;;;;;4986917;28;20055;-87
2022/10/02 14:08:32;;;;;;;1.38;0.52;;;22.80;99.90;;;;;;4954950;29;20052;-86
2022/10/02 14:11:28;;;;;;;0.40;0.40;;;22.40;99.90;;;;;;4945551;29;20071;-85
2022/10/02 14:14:13;;;;;;;1.67;1.05;;;21.00;99.90;;;;;;4950792;29;20051;-87
2022/10/02 14:16:48;;;;;;;0.20;0.20;;;20.70;99.90;;;;;;4966254;29;20062;-85
2022/10/02 14:19:26;;;;;;;3.00;1.13;;;19.90;99.90;;;;;;4961954;29;20087;-87
2022/10/02 14:22:17;;;;;;;1.23;0.77;;;20.10;99.90;;;;;;4967067;28;20062;-85
2022/10/02 14:24:59;;;;;;;0.38;0.30;;;19.90;99.90;;;;;;4983535;28;20571;-85
2022/10/02 14:27:49;;;;;;;1.35;1.00;;;20.60;1.00;;;;;;4983742;28;20043;-85
2022/10/02 14:30:21;;;;;;;0.45;0.45;;;20.40;99.90;;;;;;4966077;29;20075;-85
2022/10/02 14:33:02;;;;;;;0.10;0.10;;;21.10;1.00;;;;;;4966591;28;20062;-87
2022/10/02 14:35:39;;;;;;;0.10;0.10;;;21.10;99.90;;;;;;4965111;29;20062;-85
2022/10/02 14:38:26;;;;;;;0.73;0.13;;;21.70;99.90;;;;;;4969630;28;20063;-86
2022/10/02 14:40:54;;;;;;;0.82;0.57;;;21.20;99.90;;;;;;4965207;29;20059;-84
2022/10/02 14:43:23;;;;;;;0.43;0.20;;;20.40;99.90;;;;;;4944316;29;20059;-85
2022/10/02 14:46:01;;;;;;;0.30;0.30;;;20.10;99.90;;;;;;4948665;28;20059;-85
2022/10/02 14:49:07;;;;;;;0.35;0.30;;;20.20;99.90;;;;;;4979985;28;20045;-84
2022/10/02 14:51:52;;;;;;;0.00;0.00;;;19.50;99.90;;;;;;4963351;28;20173;-84
2022/10/02 14:54:28;;;;;;;0.75;0.40;;;19.70;99.90;;;;;;4940727;28;20458;-85
2022/10/02 14:57:11;;;;;;;0.38;0.25;;;19.30;99.90;;;;;;4960660;29;20051;-83
2022/10/02 15:00:00;;;;;;;0.45;0.30;;;18.90;99.90;;;;;;4956928;29;20078;-84